Tai Xin — 5VEX3 — position and weather

sailwx.info

Track history (hours):
 
Tides and Currents Weather Stations Pressure Air Temp Water Temp Dewpoint Dewpoint Depression Visibility Wind Speed Wind Dir Waves Ship Positions

Tai Xin

Last reported at 2017-Dec-08 21:41 UTC. Time now 2017-Dec-16 11:20 UTC.
Position N 33°42' E 129°56'.

Length 75 m; draft 4.2 m.

Type: Cargo ship. MMSI: 671897000.

Date/timePositionNaut miles runAvg speedWind from/ knotsBaromVisibWave heightAir tempDewpointWater temp
2017-Dec-08 21:41N 33°42' E 129°56'2 8.7
2017-Dec-08 21:30N 33°43' E 129°58'4 8.6
2017-Dec-08 21:00N 33°45' E 130°02'4 8.5
2017-Dec-08 20:30N 33°47' E 130°07'4 8.1
2017-Dec-08 20:00N 33°49' E 130°11'4 8.0
2017-Dec-08 19:30N 33°51' E 130°15'4 7.8
2017-Dec-08 19:00N 33°53' E 130°19'4 7.6
2017-Dec-08 18:30N 33°55' E 130°23'3 7.0
2017-Dec-08 18:00N 33°57' E 130°26'4 7.1
2017-Dec-08 17:30N 33°58' E 130°31'4 7.3
2017-Dec-08 17:00N 33°58' E 130°35'4 7.3
2017-Dec-08 16:30N 33°58' E 130°39'4 7.6
2017-Dec-08 16:00N 33°58' E 130°44'4 8.0
2017-Dec-08 15:30N 33°58' E 130°49'4 7.9
2017-Dec-08 15:00N 33°56' E 130°53'3 5.8
2017-Dec-08 14:30N 33°56' E 130°56'4 8.4
2017-Dec-08 14:00N 33°59' E 131°01'4 8.8
2017-Dec-08 13:30N 33°56' E 131°05'5 9.2
2017-Dec-08 13:00N 33°54' E 131°09'5 9.2
2017-Dec-08 12:30N 33°52' E 131°15'5 9.2
2017-Dec-08 12:00N 33°51' E 131°20'4 8.9
2017-Dec-08 11:30N 33°50' E 131°25'4 8.9
2017-Dec-08 11:00N 33°49' E 131°30'4 8.6
2017-Dec-08 10:30N 33°48' E 131°35'4 8.3
2017-Dec-08 10:00N 33°47' E 131°40'4 7.8
2017-Dec-08 09:26N 33°46' E 131°46'34 7.7
2017-Dec-08 05:00N 33°49' E 132°27'16 5.4
2017-Dec-08 02:06N 34°04' E 132°25'1 8.9
2017-Dec-08 01:58N 34°05' E 132°24'4 9.2
2017-Dec-08 01:29N 34°09' E 132°21'4 9.0
2017-Dec-08 01:00N 34°13' E 132°20'5 9.1
2017-Dec-08 00:30N 34°18' E 132°22'4 9.0
2017-Dec-08 00:00N 34°20' E 132°26'4 8.0
2017-Dec-07 23:30N 34°21' E 132°31'0 0.0
2017-Dec-07 12:17N 34°22' E 132°31'0 0.0
2017-Dec-07 11:59N 34°22' E 132°31'0 0.0
2017-Dec-07 11:29N 34°22' E 132°31'0 0.0
2017-Dec-07 01:40N 34°22' E 132°31'  
2017-Dec-04 10:22N 33°45' E 129°58'6 9.4
2017-Dec-04 09:43N 33°41' E 129°53'  
Track history (hours):
 
Tides and Currents Weather Stations Pressure Air Temp Water Temp Dewpoint Dewpoint Depression Visibility Wind Speed Wind Dir Waves Ship Positions

Tai Xin

Last reported at 2017-Dec-08 21:41 UTC. Time now 2017-Dec-16 11:20 UTC.
Position N 33°42' E 129°56'.

Length 75 m; draft 4.2 m.

Type: Cargo ship. MMSI: 671897000.

Date/timePositionNaut miles runAvg speedWind from/ knotsBaromVisibWave heightAir tempDewpointWater temp
2017-Dec-08 21:41N 33°42' E 129°56'2 8.7
2017-Dec-08 21:30N 33°43' E 129°58'4 8.6
2017-Dec-08 21:00N 33°45' E 130°02'4 8.5
2017-Dec-08 20:30N 33°47' E 130°07'4 8.1
2017-Dec-08 20:00N 33°49' E 130°11'4 8.0
2017-Dec-08 19:30N 33°51' E 130°15'4 7.8
2017-Dec-08 19:00N 33°53' E 130°19'4 7.6
2017-Dec-08 18:30N 33°55' E 130°23'3 7.0
2017-Dec-08 18:00N 33°57' E 130°26'4 7.1
2017-Dec-08 17:30N 33°58' E 130°31'4 7.3
2017-Dec-08 17:00N 33°58' E 130°35'4 7.3
2017-Dec-08 16:30N 33°58' E 130°39'4 7.6
2017-Dec-08 16:00N 33°58' E 130°44'4 8.0
2017-Dec-08 15:30N 33°58' E 130°49'4 7.9
2017-Dec-08 15:00N 33°56' E 130°53'3 5.8
2017-Dec-08 14:30N 33°56' E 130°56'4 8.4
2017-Dec-08 14:00N 33°59' E 131°01'4 8.8
2017-Dec-08 13:30N 33°56' E 131°05'5 9.2
2017-Dec-08 13:00N 33°54' E 131°09'5 9.2
2017-Dec-08 12:30N 33°52' E 131°15'5 9.2
2017-Dec-08 12:00N 33°51' E 131°20'4 8.9
2017-Dec-08 11:30N 33°50' E 131°25'4 8.9
2017-Dec-08 11:00N 33°49' E 131°30'4 8.6
2017-Dec-08 10:30N 33°48' E 131°35'4 8.3
2017-Dec-08 10:00N 33°47' E 131°40'4 7.8
2017-Dec-08 09:26N 33°46' E 131°46'34 7.7
2017-Dec-08 05:00N 33°49' E 132°27'16 5.4
2017-Dec-08 02:06N 34°04' E 132°25'1 8.9
2017-Dec-08 01:58N 34°05' E 132°24'4 9.2
2017-Dec-08 01:29N 34°09' E 132°21'4 9.0
2017-Dec-08 01:00N 34°13' E 132°20'5 9.1
2017-Dec-08 00:30N 34°18' E 132°22'4 9.0
2017-Dec-08 00:00N 34°20' E 132°26'4 8.0
2017-Dec-07 23:30N 34°21' E 132°31'0 0.0
2017-Dec-07 12:17N 34°22' E 132°31'0 0.0
2017-Dec-07 11:59N 34°22' E 132°31'0 0.0
2017-Dec-07 11:29N 34°22' E 132°31'0 0.0
2017-Dec-07 01:40N 34°22' E 132°31'  
2017-Dec-04 10:22N 33°45' E 129°58'6 9.4
2017-Dec-04 09:43N 33°41' E 129°53'  

Dump ship's entire track history